sensor_id;sensor_type;location;lat;lon;timestamp;P1;durP1;ratioP1;P2;durP2;ratioP2
47309;SDS011;33046;52.270;6.832;2023-02-28T00:01:42;8.55;;;5.60;;
47309;SDS011;33046;52.270;6.832;2023-02-28T00:03:49;8.75;;;5.18;;
47309;SDS011;33046;52.270;6.832;2023-02-28T00:05:56;8.23;;;5.45;;
47309;SDS011;33046;52.270;6.832;2023-02-28T00:08:02;12.40;;;7.35;;
47309;SDS011;33046;52.270;6.832;2023-02-28T00:10:11;10.23;;;6.40;;
47309;SDS011;33046;52.270;6.832;2023-02-28T00:12:20;10.10;;;6.22;;
47309;SDS011;33046;52.270;6.832;2023-02-28T00:14:29;8.50;;;6.15;;
47309;SDS011;33046;52.270;6.832;2023-02-28T00:16:36;6.85;;;5.30;;
47309;SDS011;33046;52.270;6.832;2023-02-28T00:18:43;8.35;;;6.03;;
47309;SDS011;33046;52.270;6.832;2023-02-28T00:20:50;9.68;;;5.43;;
47309;SDS011;33046;52.270;6.832;2023-02-28T00:22:57;9.95;;;6.97;;
47309;SDS011;33046;52.270;6.832;2023-02-28T00:25:04;9.02;;;5.82;;
47309;SDS011;33046;52.270;6.832;2023-02-28T00:27:11;9.10;;;5.80;;
47309;SDS011;33046;52.270;6.832;2023-02-28T00:29:18;7.15;;;5.32;;
47309;SDS011;33046;52.270;6.832;2023-02-28T00:31:26;11.35;;;5.93;;
47309;SDS011;33046;52.270;6.832;2023-02-28T00:33:33;11.55;;;6.15;;
47309;SDS011;33046;52.270;6.832;2023-02-28T00:35:40;12.15;;;5.95;;
47309;SDS011;33046;52.270;6.832;2023-02-28T00:37:48;8.68;;;5.35;;
47309;SDS011;33046;52.270;6.832;2023-02-28T00:39:55;7.93;;;5.25;;
47309;SDS011;33046;52.270;6.832;2023-02-28T00:42:02;7.72;;;5.60;;
47309;SDS011;33046;52.270;6.832;2023-02-28T00:44:09;8.10;;;5.57;;
47309;SDS011;33046;52.270;6.832;2023-02-28T00:46:17;9.00;;;5.40;;
47309;SDS011;33046;52.270;6.832;2023-02-28T00:48:25;9.60;;;6.93;;
47309;SDS011;33046;52.270;6.832;2023-02-28T00:50:32;8.77;;;5.70;;
47309;SDS011;33046;52.270;6.832;2023-02-28T00:52:39;9.05;;;6.47;;
47309;SDS011;33046;52.270;6.832;2023-02-28T00:54:46;13.75;;;6.10;;
47309;SDS011;33046;52.270;6.832;2023-02-28T00:56:53;6.22;;;5.13;;
47309;SDS011;33046;52.270;6.832;2023-02-28T00:59:00;9.60;;;7.13;;
47309;SDS011;33046;52.270;6.832;2023-02-28T01:01:07;12.18;;;5.43;;
47309;SDS011;33046;52.270;6.832;2023-02-28T01:03:17;9.43;;;4.45;;
47309;SDS011;33046;52.270;6.832;2023-02-28T01:05:26;8.35;;;6.85;;
47309;SDS011;33046;52.270;6.832;2023-02-28T01:07:33;5.80;;;4.18;;
47309;SDS011;33046;52.270;6.832;2023-02-28T01:09:40;7.80;;;5.20;;
47309;SDS011;33046;52.270;6.832;2023-02-28T01:11:47;8.52;;;5.63;;
47309;SDS011;33046;52.270;6.832;2023-02-28T01:13:54;12.23;;;5.45;;
47309;SDS011;33046;52.270;6.832;2023-02-28T01:16:00;9.98;;;5.95;;
47309;SDS011;33046;52.270;6.832;2023-02-28T01:18:07;10.13;;;5.70;;
47309;SDS011;33046;52.270;6.832;2023-02-28T01:20:14;7.68;;;5.43;;
47309;SDS011;33046;52.270;6.832;2023-02-28T01:22:22;9.48;;;6.03;;
47309;SDS011;33046;52.270;6.832;2023-02-28T01:24:29;7.40;;;5.25;;
47309;SDS011;33046;52.270;6.832;2023-02-28T01:26:36;7.55;;;5.20;;
47309;SDS011;33046;52.270;6.832;2023-02-28T01:28:47;7.05;;;5.63;;
47309;SDS011;33046;52.270;6.832;2023-02-28T01:30:55;7.72;;;5.45;;
47309;SDS011;33046;52.270;6.832;2023-02-28T01:33:02;6.88;;;4.93;;
47309;SDS011;33046;52.270;6.832;2023-02-28T01:35:09;7.47;;;5.32;;
47309;SDS011;33046;52.270;6.832;2023-02-28T01:37:17;4.75;;;4.25;;
47309;SDS011;33046;52.270;6.832;2023-02-28T01:39:25;5.15;;;4.65;;
47309;SDS011;33046;52.270;6.832;2023-02-28T01:41:33;5.57;;;4.72;;
47309;SDS011;33046;52.270;6.832;2023-02-28T01:43:54;6.15;;;4.70;;
47309;SDS011;33046;52.270;6.832;2023-02-28T01:46:03;6.47;;;5.83;;
47309;SDS011;33046;52.270;6.832;2023-02-28T01:48:10;7.93;;;4.93;;
47309;SDS011;33046;52.270;6.832;2023-02-28T01:50:19;7.20;;;5.07;;
47309;SDS011;33046;52.270;6.832;2023-02-28T01:52:28;6.82;;;3.97;;
47309;SDS011;33046;52.270;6.832;2023-02-28T01:54:37;5.18;;;4.63;;
47309;SDS011;33046;52.270;6.832;2023-02-28T01:56:46;5.47;;;4.90;;
47309;SDS011;33046;52.270;6.832;2023-02-28T01:58:57;4.45;;;3.80;;
47309;SDS011;33046;52.270;6.832;2023-02-28T02:01:04;6.82;;;4.35;;
47309;SDS011;33046;52.270;6.832;2023-02-28T02:03:12;7.55;;;4.25;;
47309;SDS011;33046;52.270;6.832;2023-02-28T02:05:22;3.80;;;3.38;;
47309;SDS011;33046;52.270;6.832;2023-02-28T02:07:31;7.13;;;4.72;;
47309;SDS011;33046;52.270;6.832;2023-02-28T02:09:42;7.55;;;5.00;;
47309;SDS011;33046;52.270;6.832;2023-02-28T02:11:49;5.57;;;4.38;;
47309;SDS011;33046;52.270;6.832;2023-02-28T02:14:07;4.65;;;3.42;;
47309;SDS011;33046;52.270;6.832;2023-02-28T02:16:34;6.15;;;4.50;;
47309;SDS011;33046;52.270;6.832;2023-02-28T02:18:51;6.40;;;4.88;;
47309;SDS011;33046;52.270;6.832;2023-02-28T02:29:06;7.20;;;4.63;;
47309;SDS011;33046;52.270;6.832;2023-02-28T02:34:30;5.85;;;4.63;;
47309;SDS011;33046;52.270;6.832;2023-02-28T02:36:47;8.70;;;5.72;;
47309;SDS011;33046;52.270;6.832;2023-02-28T02:38:58;8.40;;;4.53;;
47309;SDS011;33046;52.270;6.832;2023-02-28T02:41:13;7.53;;;4.32;;
47309;SDS011;33046;52.270;6.832;2023-02-28T02:43:25;6.68;;;5.70;;
47309;SDS011;33046;52.270;6.832;2023-02-28T02:45:39;7.68;;;5.10;;
47309;SDS011;33046;52.270;6.832;2023-02-28T02:47:53;9.55;;;6.07;;
47309;SDS011;33046;52.270;6.832;2023-02-28T02:50:04;8.15;;;4.95;;
47309;SDS011;33046;52.270;6.832;2023-02-28T02:52:15;4.97;;;4.40;;
47309;SDS011;33046;52.270;6.832;2023-02-28T02:54:27;9.27;;;4.25;;
47309;SDS011;33046;52.270;6.832;2023-02-28T02:56:36;8.25;;;4.35;;
47309;SDS011;33046;52.270;6.832;2023-02-28T02:58:47;7.32;;;4.00;;
47309;SDS011;33046;52.270;6.832;2023-02-28T03:00:58;6.85;;;4.38;;
47309;SDS011;33046;52.270;6.832;2023-02-28T03:03:07;5.70;;;4.45;;
47309;SDS011;33046;52.270;6.832;2023-02-28T03:05:19;8.40;;;4.65;;
47309;SDS011;33046;52.270;6.832;2023-02-28T03:07:29;10.82;;;5.38;;
47309;SDS011;33046;52.270;6.832;2023-02-28T03:09:36;5.53;;;4.65;;
47309;SDS011;33046;52.270;6.832;2023-02-28T03:11:45;7.32;;;4.68;;
47309;SDS011;33046;52.270;6.832;2023-02-28T03:13:55;5.88;;;4.35;;
47309;SDS011;33046;52.270;6.832;2023-02-28T03:16:16;6.15;;;4.25;;
47309;SDS011;33046;52.270;6.832;2023-02-28T03:18:44;10.00;;;5.60;;
47309;SDS011;33046;52.270;6.832;2023-02-28T03:21:03;6.72;;;4.30;;
47309;SDS011;33046;52.270;6.832;2023-02-28T03:23:21;8.07;;;4.93;;
47309;SDS011;33046;52.270;6.832;2023-02-28T03:25:34;13.32;;;7.03;;
47309;SDS011;33046;52.270;6.832;2023-02-28T03:27:49;6.40;;;4.72;;
47309;SDS011;33046;52.270;6.832;2023-02-28T03:30:09;8.32;;;5.15;;
47309;SDS011;33046;52.270;6.832;2023-02-28T03:32:17;9.85;;;5.95;;
47309;SDS011;33046;52.270;6.832;2023-02-28T03:34:29;8.03;;;5.40;;
47309;SDS011;33046;52.270;6.832;2023-02-28T03:36:42;8.55;;;6.00;;
47309;SDS011;33046;52.270;6.832;2023-02-28T03:38:55;8.20;;;4.80;;
47309;SDS011;33046;52.270;6.832;2023-02-28T03:41:05;6.05;;;4.82;;
47309;SDS011;33046;52.270;6.832;2023-02-28T03:43:18;6.43;;;4.25;;
47309;SDS011;33046;52.270;6.832;2023-02-28T03:45:29;9.65;;;4.80;;
47309;SDS011;33046;52.270;6.832;2023-02-28T03:47:40;15.35;;;5.28;;
47309;SDS011;33046;52.270;6.832;2023-02-28T03:49:52;8.40;;;5.05;;
47309;SDS011;33046;52.270;6.832;2023-02-28T03:52:04;6.10;;;4.90;;
47309;SDS011;33046;52.270;6.832;2023-02-28T03:54:15;6.72;;;4.80;;
47309;SDS011;33046;52.270;6.832;2023-02-28T03:56:27;6.85;;;4.65;;
47309;SDS011;33046;52.270;6.832;2023-02-28T03:58:41;7.28;;;4.90;;
47309;SDS011;33046;52.270;6.832;2023-02-28T04:00:55;5.32;;;4.78;;
47309;SDS011;33046;52.270;6.832;2023-02-28T04:03:07;6.88;;;5.93;;
47309;SDS011;33046;52.270;6.832;2023-02-28T04:05:13;7.28;;;4.43;;
47309;SDS011;33046;52.270;6.832;2023-02-28T04:07:22;8.25;;;5.43;;
47309;SDS011;33046;52.270;6.832;2023-02-28T04:09:28;9.00;;;5.05;;
47309;SDS011;33046;52.270;6.832;2023-02-28T04:11:36;8.10;;;5.10;;
47309;SDS011;33046;52.270;6.832;2023-02-28T04:13:44;7.78;;;5.72;;
47309;SDS011;33046;52.270;6.832;2023-02-28T04:15:52;8.82;;;4.85;;
47309;SDS011;33046;52.270;6.832;2023-02-28T04:17:59;7.03;;;5.43;;
47309;SDS011;33046;52.270;6.832;2023-02-28T04:20:06;9.25;;;5.55;;
47309;SDS011;33046;52.270;6.832;2023-02-28T04:22:14;7.15;;;4.95;;
47309;SDS011;33046;52.270;6.832;2023-02-28T04:24:22;7.05;;;5.43;;
47309;SDS011;33046;52.270;6.832;2023-02-28T04:26:31;6.50;;;5.75;;
47309;SDS011;33046;52.270;6.832;2023-02-28T04:28:38;6.93;;;5.25;;
47309;SDS011;33046;52.270;6.832;2023-02-28T04:30:44;8.70;;;5.10;;
47309;SDS011;33046;52.270;6.832;2023-02-28T04:32:51;9.00;;;5.53;;
47309;SDS011;33046;52.270;6.832;2023-02-28T04:34:58;6.88;;;5.47;;
47309;SDS011;33046;52.270;6.832;2023-02-28T04:37:05;6.53;;;5.85;;
47309;SDS011;33046;52.270;6.832;2023-02-28T04:39:19;7.13;;;5.07;;
47309;SDS011;33046;52.270;6.832;2023-02-28T04:41:28;6.38;;;5.28;;
47309;SDS011;33046;52.270;6.832;2023-02-28T04:43:37;7.05;;;5.38;;
47309;SDS011;33046;52.270;6.832;2023-02-28T04:45:44;7.35;;;5.47;;
47309;SDS011;33046;52.270;6.832;2023-02-28T04:47:51;7.80;;;5.25;;
47309;SDS011;33046;52.270;6.832;2023-02-28T04:49:58;9.10;;;5.25;;
47309;SDS011;33046;52.270;6.832;2023-02-28T04:52:04;8.63;;;5.38;;
47309;SDS011;33046;52.270;6.832;2023-02-28T04:54:11;8.18;;;6.57;;
47309;SDS011;33046;52.270;6.832;2023-02-28T04:56:19;11.73;;;7.55;;
47309;SDS011;33046;52.270;6.832;2023-02-28T04:58:27;8.95;;;6.90;;
47309;SDS011;33046;52.270;6.832;2023-02-28T05:00:33;6.82;;;5.93;;
47309;SDS011;33046;52.270;6.832;2023-02-28T05:02:41;10.13;;;6.53;;
47309;SDS011;33046;52.270;6.832;2023-02-28T05:04:47;13.63;;;6.68;;
47309;SDS011;33046;52.270;6.832;2023-02-28T05:06:54;9.52;;;5.45;;
47309;SDS011;33046;52.270;6.832;2023-02-28T05:09:01;7.03;;;5.47;;
47309;SDS011;33046;52.270;6.832;2023-02-28T05:11:15;8.93;;;6.18;;
47309;SDS011;33046;52.270;6.832;2023-02-28T05:13:25;12.80;;;6.22;;
47309;SDS011;33046;52.270;6.832;2023-02-28T05:15:32;8.55;;;5.93;;
47309;SDS011;33046;52.270;6.832;2023-02-28T05:17:41;8.30;;;6.30;;
47309;SDS011;33046;52.270;6.832;2023-02-28T05:19:47;10.38;;;6.38;;
47309;SDS011;33046;52.270;6.832;2023-02-28T05:21:54;7.78;;;5.78;;
47309;SDS011;33046;52.270;6.832;2023-02-28T05:24:02;9.32;;;6.05;;
47309;SDS011;33046;52.270;6.832;2023-02-28T05:26:10;6.72;;;5.55;;
47309;SDS011;33046;52.270;6.832;2023-02-28T05:28:17;10.25;;;5.13;;
47309;SDS011;33046;52.270;6.832;2023-02-28T05:30:25;9.00;;;5.88;;
47309;SDS011;33046;52.270;6.832;2023-02-28T05:32:32;8.10;;;4.78;;
47309;SDS011;33046;52.270;6.832;2023-02-28T05:34:39;9.82;;;5.53;;
47309;SDS011;33046;52.270;6.832;2023-02-28T05:36:46;7.00;;;5.50;;
47309;SDS011;33046;52.270;6.832;2023-02-28T05:38:53;7.20;;;4.22;;
47309;SDS011;33046;52.270;6.832;2023-02-28T05:41:04;10.38;;;4.97;;
47309;SDS011;33046;52.270;6.832;2023-02-28T05:43:11;6.82;;;4.60;;
47309;SDS011;33046;52.270;6.832;2023-02-28T05:45:18;6.47;;;5.05;;
47309;SDS011;33046;52.270;6.832;2023-02-28T05:47:26;8.05;;;6.07;;
47309;SDS011;33046;52.270;6.832;2023-02-28T05:49:33;8.23;;;5.80;;
47309;SDS011;33046;52.270;6.832;2023-02-28T05:51:40;8.23;;;5.93;;
47309;SDS011;33046;52.270;6.832;2023-02-28T05:53:46;7.43;;;4.93;;
47309;SDS011;33046;52.270;6.832;2023-02-28T05:55:53;6.38;;;5.07;;
47309;SDS011;33046;52.270;6.832;2023-02-28T05:58:00;6.75;;;6.03;;
47309;SDS011;33046;52.270;6.832;2023-02-28T06:00:07;7.28;;;5.40;;
47309;SDS011;33046;52.270;6.832;2023-02-28T06:02:18;6.88;;;5.22;;
47309;SDS011;33046;52.270;6.832;2023-02-28T06:04:26;8.90;;;6.03;;
47309;SDS011;33046;52.270;6.832;2023-02-28T06:06:37;7.40;;;4.70;;
47309;SDS011;33046;52.270;6.832;2023-02-28T06:08:44;7.95;;;4.57;;
47309;SDS011;33046;52.270;6.832;2023-02-28T06:10:50;5.93;;;5.00;;
47309;SDS011;33046;52.270;6.832;2023-02-28T06:12:59;9.30;;;4.80;;
47309;SDS011;33046;52.270;6.832;2023-02-28T06:15:06;8.43;;;6.50;;
47309;SDS011;33046;52.270;6.832;2023-02-28T06:17:14;13.57;;;9.52;;
47309;SDS011;33046;52.270;6.832;2023-02-28T06:19:20;11.35;;;8.20;;
47309;SDS011;33046;52.270;6.832;2023-02-28T06:21:29;8.52;;;5.78;;
47309;SDS011;33046;52.270;6.832;2023-02-28T06:23:36;8.77;;;5.88;;
47309;SDS011;33046;52.270;6.832;2023-02-28T06:25:44;11.30;;;6.40;;
47309;SDS011;33046;52.270;6.832;2023-02-28T06:27:51;8.23;;;5.82;;
47309;SDS011;33046;52.270;6.832;2023-02-28T06:29:58;7.43;;;6.22;;
47309;SDS011;33046;52.270;6.832;2023-02-28T06:32:05;7.03;;;5.47;;
47309;SDS011;33046;52.270;6.832;2023-02-28T06:34:12;7.03;;;5.40;;
47309;SDS011;33046;52.270;6.832;2023-02-28T06:36:19;8.38;;;5.80;;
47309;SDS011;33046;52.270;6.832;2023-02-28T06:38:28;7.53;;;5.35;;
47309;SDS011;33046;52.270;6.832;2023-02-28T06:40:34;7.80;;;5.90;;
47309;SDS011;33046;52.270;6.832;2023-02-28T06:42:41;5.88;;;4.68;;
47309;SDS011;33046;52.270;6.832;2023-02-28T06:44:48;7.45;;;5.63;;
47309;SDS011;33046;52.270;6.832;2023-02-28T06:46:55;7.55;;;5.13;;
47309;SDS011;33046;52.270;6.832;2023-02-28T06:49:02;5.68;;;4.70;;
47309;SDS011;33046;52.270;6.832;2023-02-28T06:51:10;6.13;;;4.85;;
47309;SDS011;33046;52.270;6.832;2023-02-28T06:53:18;6.55;;;5.05;;
47309;SDS011;33046;52.270;6.832;2023-02-28T06:55:26;7.70;;;4.60;;
47309;SDS011;33046;52.270;6.832;2023-02-28T06:57:35;7.13;;;4.70;;
47309;SDS011;33046;52.270;6.832;2023-02-28T06:59:42;7.05;;;5.13;;
47309;SDS011;33046;52.270;6.832;2023-02-28T07:01:49;6.43;;;4.78;;
47309;SDS011;33046;52.270;6.832;2023-02-28T07:03:56;6.20;;;4.55;;
47309;SDS011;33046;52.270;6.832;2023-02-28T07:06:04;5.63;;;4.72;;
47309;SDS011;33046;52.270;6.832;2023-02-28T07:08:11;7.90;;;5.07;;
47309;SDS011;33046;52.270;6.832;2023-02-28T07:10:18;8.90;;;5.50;;
47309;SDS011;33046;52.270;6.832;2023-02-28T07:12:27;6.00;;;4.55;;
47309;SDS011;33046;52.270;6.832;2023-02-28T07:14:34;6.18;;;4.43;;
47309;SDS011;33046;52.270;6.832;2023-02-28T07:16:42;10.32;;;4.13;;
47309;SDS011;33046;52.270;6.832;2023-02-28T07:18:49;5.90;;;3.72;;
47309;SDS011;33046;52.270;6.832;2023-02-28T07:20:58;7.97;;;4.20;;
47309;SDS011;33046;52.270;6.832;2023-02-28T07:23:07;7.15;;;4.13;;
47309;SDS011;33046;52.270;6.832;2023-02-28T07:25:14;7.63;;;3.67;;
47309;SDS011;33046;52.270;6.832;2023-02-28T07:27:21;6.65;;;4.40;;
47309;SDS011;33046;52.270;6.832;2023-02-28T07:29:29;7.53;;;3.80;;
47309;SDS011;33046;52.270;6.832;2023-02-28T07:31:36;5.35;;;3.42;;
47309;SDS011;33046;52.270;6.832;2023-02-28T07:33:43;6.90;;;4.43;;
47309;SDS011;33046;52.270;6.832;2023-02-28T07:35:50;4.85;;;3.03;;
47309;SDS011;33046;52.270;6.832;2023-02-28T07:37:57;4.45;;;3.08;;
47309;SDS011;33046;52.270;6.832;2023-02-28T07:40:04;4.63;;;2.83;;
47309;SDS011;33046;52.270;6.832;2023-02-28T07:42:13;6.03;;;3.15;;
47309;SDS011;33046;52.270;6.832;2023-02-28T07:44:20;6.78;;;2.78;;
47309;SDS011;33046;52.270;6.832;2023-02-28T07:46:28;4.78;;;2.92;;
47309;SDS011;33046;52.270;6.832;2023-02-28T07:48:36;6.32;;;2.35;;
47309;SDS011;33046;52.270;6.832;2023-02-28T07:50:43;4.18;;;2.45;;
47309;SDS011;33046;52.270;6.832;2023-02-28T07:52:50;6.28;;;2.30;;
47309;SDS011;33046;52.270;6.832;2023-02-28T07:54:57;6.72;;;3.53;;
47309;SDS011;33046;52.270;6.832;2023-02-28T07:57:03;4.40;;;2.30;;
47309;SDS011;33046;52.270;6.832;2023-02-28T07:59:10;3.53;;;2.28;;
47309;SDS011;33046;52.270;6.832;2023-02-28T08:01:17;2.92;;;2.10;;
47309;SDS011;33046;52.270;6.832;2023-02-28T08:03:25;5.82;;;2.10;;
47309;SDS011;33046;52.270;6.832;2023-02-28T08:05:32;4.00;;;2.17;;
47309;SDS011;33046;52.270;6.832;2023-02-28T08:07:39;6.93;;;1.80;;
47309;SDS011;33046;52.270;6.832;2023-02-28T08:09:45;2.85;;;2.13;;
47309;SDS011;33046;52.270;6.832;2023-02-28T08:11:52;3.88;;;1.88;;
47309;SDS011;33046;52.270;6.832;2023-02-28T08:13:59;3.53;;;1.70;;
47309;SDS011;33046;52.270;6.832;2023-02-28T08:16:06;3.88;;;1.45;;
47309;SDS011;33046;52.270;6.832;2023-02-28T08:18:12;2.45;;;1.42;;
47309;SDS011;33046;52.270;6.832;2023-02-28T08:20:21;2.13;;;1.30;;
47309;SDS011;33046;52.270;6.832;2023-02-28T08:22:28;2.33;;;1.95;;
47309;SDS011;33046;52.270;6.832;2023-02-28T08:24:34;1.70;;;0.90;;
47309;SDS011;33046;52.270;6.832;2023-02-28T08:26:41;2.50;;;0.98;;
47309;SDS011;33046;52.270;6.832;2023-02-28T08:28:48;3.75;;;1.02;;
47309;SDS011;33046;52.270;6.832;2023-02-28T08:30:55;2.13;;;1.00;;
47309;SDS011;33046;52.270;6.832;2023-02-28T08:33:02;2.22;;;1.20;;
47309;SDS011;33046;52.270;6.832;2023-02-28T08:35:09;2.00;;;1.27;;
47309;SDS011;33046;52.270;6.832;2023-02-28T08:37:17;2.92;;;1.10;;
47309;SDS011;33046;52.270;6.832;2023-02-28T08:39:24;1.95;;;1.17;;
47309;SDS011;33046;52.270;6.832;2023-02-28T08:41:31;2.78;;;0.85;;
47309;SDS011;33046;52.270;6.832;2023-02-28T08:43:39;2.58;;;1.00;;
47309;SDS011;33046;52.270;6.832;2023-02-28T08:45:46;2.28;;;1.38;;
47309;SDS011;33046;52.270;6.832;2023-02-28T08:47:53;1.67;;;0.90;;
47309;SDS011;33046;52.270;6.832;2023-02-28T08:50:00;4.03;;;1.10;;
47309;SDS011;33046;52.270;6.832;2023-02-28T08:52:07;2.28;;;1.20;;
47309;SDS011;33046;52.270;6.832;2023-02-28T08:54:15;2.90;;;1.63;;
47309;SDS011;33046;52.270;6.832;2023-02-28T08:56:22;1.70;;;1.00;;
47309;SDS011;33046;52.270;6.832;2023-02-28T08:58:29;4.53;;;1.08;;
47309;SDS011;33046;52.270;6.832;2023-02-28T09:00:36;2.45;;;0.90;;
47309;SDS011;33046;52.270;6.832;2023-02-28T09:02:43;5.15;;;1.58;;
47309;SDS011;33046;52.270;6.832;2023-02-28T09:04:49;1.23;;;0.70;;
47309;SDS011;33046;52.270;6.832;2023-02-28T09:06:56;1.45;;;0.60;;
47309;SDS011;33046;52.270;6.832;2023-02-28T09:09:03;0.85;;;0.65;;
47309;SDS011;33046;52.270;6.832;2023-02-28T09:11:11;2.10;;;0.80;;
47309;SDS011;33046;52.270;6.832;2023-02-28T09:13:18;1.58;;;0.98;;
47309;SDS011;33046;52.270;6.832;2023-02-28T09:15:25;2.10;;;0.50;;
47309;SDS011;33046;52.270;6.832;2023-02-28T09:17:32;1.10;;;0.82;;
47309;SDS011;33046;52.270;6.832;2023-02-28T09:19:39;1.38;;;0.80;;
47309;SDS011;33046;52.270;6.832;2023-02-28T09:21:45;1.45;;;0.80;;
47309;SDS011;33046;52.270;6.832;2023-02-28T09:23:52;1.25;;;0.50;;
47309;SDS011;33046;52.270;6.832;2023-02-28T09:25:59;1.75;;;0.90;;
47309;SDS011;33046;52.270;6.832;2023-02-28T09:28:08;1.42;;;0.60;;
47309;SDS011;33046;52.270;6.832;2023-02-28T09:30:14;3.35;;;0.52;;
47309;SDS011;33046;52.270;6.832;2023-02-28T09:32:21;4.65;;;0.70;;
47309;SDS011;33046;52.270;6.832;2023-02-28T09:34:28;1.67;;;0.77;;
47309;SDS011;33046;52.270;6.832;2023-02-28T09:36:35;2.40;;;0.70;;
47309;SDS011;33046;52.270;6.832;2023-02-28T09:38:50;1.33;;;0.60;;
47309;SDS011;33046;52.270;6.832;2023-02-28T09:41:03;3.75;;;0.95;;
47309;SDS011;33046;52.270;6.832;2023-02-28T09:43:17;1.35;;;0.95;;
47309;SDS011;33046;52.270;6.832;2023-02-28T09:45:28;1.80;;;0.80;;
47309;SDS011;33046;52.270;6.832;2023-02-28T09:47:38;2.28;;;0.70;;
47309;SDS011;33046;52.270;6.832;2023-02-28T09:49:48;1.55;;;0.70;;
47309;SDS011;33046;52.270;6.832;2023-02-28T09:51:56;1.38;;;0.60;;
47309;SDS011;33046;52.270;6.832;2023-02-28T09:54:09;0.70;;;0.57;;
47309;SDS011;33046;52.270;6.832;2023-02-28T09:56:21;1.15;;;0.70;;
47309;SDS011;33046;52.270;6.832;2023-02-28T09:58:36;2.00;;;0.82;;
47309;SDS011;33046;52.270;6.832;2023-02-28T10:00:49;0.85;;;0.63;;
47309;SDS011;33046;52.270;6.832;2023-02-28T10:05:36;1.40;;;0.70;;
47309;SDS011;33046;52.270;6.832;2023-02-28T10:07:50;1.10;;;0.70;;
47309;SDS011;33046;52.270;6.832;2023-02-28T10:10:14;1.55;;;0.70;;
47309;SDS011;33046;52.270;6.832;2023-02-28T10:12:25;1.15;;;0.60;;
47309;SDS011;33046;52.270;6.832;2023-02-28T10:14:45;1.70;;;0.73;;
47309;SDS011;33046;52.270;6.832;2023-02-28T10:16:54;2.15;;;0.60;;
47309;SDS011;33046;52.270;6.832;2023-02-28T10:19:05;2.80;;;1.08;;
47309;SDS011;33046;52.270;6.832;2023-02-28T10:21:19;1.88;;;0.73;;
47309;SDS011;33046;52.270;6.832;2023-02-28T10:23:28;0.88;;;0.50;;
47309;SDS011;33046;52.270;6.832;2023-02-28T10:25:40;1.50;;;0.65;;
47309;SDS011;33046;52.270;6.832;2023-02-28T10:27:50;1.73;;;0.70;;
47309;SDS011;33046;52.270;6.832;2023-02-28T10:30:01;2.15;;;0.65;;
47309;SDS011;33046;52.270;6.832;2023-02-28T10:32:08;2.05;;;0.60;;
47309;SDS011;33046;52.270;6.832;2023-02-28T10:34:20;1.40;;;0.77;;
47309;SDS011;33046;52.270;6.832;2023-02-28T10:36:27;1.13;;;0.98;;
47309;SDS011;33046;52.270;6.832;2023-02-28T10:38:35;0.98;;;0.60;;
47309;SDS011;33046;52.270;6.832;2023-02-28T10:40:43;0.70;;;0.50;;
47309;SDS011;33046;52.270;6.832;2023-02-28T10:42:54;1.02;;;0.60;;
47309;SDS011;33046;52.270;6.832;2023-02-28T10:45:09;0.50;;;0.50;;
47309;SDS011;33046;52.270;6.832;2023-02-28T10:47:18;0.98;;;0.50;;
47309;SDS011;33046;52.270;6.832;2023-02-28T10:49:26;0.90;;;0.50;;
47309;SDS011;33046;52.270;6.832;2023-02-28T10:51:34;0.60;;;0.47;;
47309;SDS011;33046;52.270;6.832;2023-02-28T10:53:47;0.80;;;0.50;;
47309;SDS011;33046;52.270;6.832;2023-02-28T10:56:14;1.40;;;0.40;;
47309;SDS011;33046;52.270;6.832;2023-02-28T10:58:23;1.17;;;0.70;;
47309;SDS011;33046;52.270;6.832;2023-02-28T11:00:33;0.60;;;0.50;;
47309;SDS011;33046;52.270;6.832;2023-02-28T11:02:41;1.02;;;0.43;;
47309;SDS011;33046;52.270;6.832;2023-02-28T11:04:48;0.90;;;0.50;;
47309;SDS011;33046;52.270;6.832;2023-02-28T11:06:58;2.78;;;1.15;;
47309;SDS011;33046;52.270;6.832;2023-02-28T11:09:15;0.90;;;0.50;;
47309;SDS011;33046;52.270;6.832;2023-02-28T11:11:40;1.65;;;0.60;;
47309;SDS011;33046;52.270;6.832;2023-02-28T11:13:51;1.50;;;0.60;;
47309;SDS011;33046;52.270;6.832;2023-02-28T11:16:02;1.08;;;0.57;;
47309;SDS011;33046;52.270;6.832;2023-02-28T11:18:18;0.88;;;0.50;;
47309;SDS011;33046;52.270;6.832;2023-02-28T11:20:31;3.03;;;0.50;;
47309;SDS011;33046;52.270;6.832;2023-02-28T11:22:39;1.70;;;0.50;;
47309;SDS011;33046;52.270;6.832;2023-02-28T11:24:51;2.35;;;0.60;;
47309;SDS011;33046;52.270;6.832;2023-02-28T11:26:59;1.33;;;0.50;;
47309;SDS011;33046;52.270;6.832;2023-02-28T11:29:11;0.80;;;0.52;;
47309;SDS011;33046;52.270;6.832;2023-02-28T11:31:25;0.82;;;0.40;;
47309;SDS011;33046;52.270;6.832;2023-02-28T11:33:32;1.27;;;0.70;;
47309;SDS011;33046;52.270;6.832;2023-02-28T11:35:46;2.50;;;0.63;;
47309;SDS011;33046;52.270;6.832;2023-02-28T11:37:55;1.52;;;0.65;;
47309;SDS011;33046;52.270;6.832;2023-02-28T11:40:05;2.42;;;0.60;;
47309;SDS011;33046;52.270;6.832;2023-02-28T11:42:31;1.38;;;0.75;;
47309;SDS011;33046;52.270;6.832;2023-02-28T11:47:08;1.40;;;0.65;;
47309;SDS011;33046;52.270;6.832;2023-02-28T11:49:25;1.65;;;0.60;;
47309;SDS011;33046;52.270;6.832;2023-02-28T11:51:41;1.23;;;0.75;;
47309;SDS011;33046;52.270;6.832;2023-02-28T11:54:06;1.15;;;0.80;;
47309;SDS011;33046;52.270;6.832;2023-02-28T11:56:29;2.47;;;0.60;;
47309;SDS011;33046;52.270;6.832;2023-02-28T11:58:42;0.88;;;0.60;;
47309;SDS011;33046;52.270;6.832;2023-02-28T12:01:09;1.60;;;0.85;;
47309;SDS011;33046;52.270;6.832;2023-02-28T12:03:27;1.05;;;0.70;;
47309;SDS011;33046;52.270;6.832;2023-02-28T12:05:46;2.92;;;1.55;;
47309;SDS011;33046;52.270;6.832;2023-02-28T12:08:01;0.90;;;0.77;;
47309;SDS011;33046;52.270;6.832;2023-02-28T12:10:20;0.90;;;0.70;;
47309;SDS011;33046;52.270;6.832;2023-02-28T12:12:32;2.45;;;1.42;;
47309;SDS011;33046;52.270;6.832;2023-02-28T12:14:50;1.10;;;0.70;;
47309;SDS011;33046;52.270;6.832;2023-02-28T12:17:10;1.25;;;1.00;;
47309;SDS011;33046;52.270;6.832;2023-02-28T12:19:30;2.72;;;0.88;;
47309;SDS011;33046;52.270;6.832;2023-02-28T12:24:38;1.38;;;0.60;;
47309;SDS011;33046;52.270;6.832;2023-02-28T12:26:58;1.52;;;0.80;;
47309;SDS011;33046;52.270;6.832;2023-02-28T12:29:10;1.30;;;0.70;;
47309;SDS011;33046;52.270;6.832;2023-02-28T12:31:23;1.90;;;0.70;;
47309;SDS011;33046;52.270;6.832;2023-02-28T12:33:36;1.05;;;0.85;;
47309;SDS011;33046;52.270;6.832;2023-02-28T12:35:51;2.22;;;0.90;;
47309;SDS011;33046;52.270;6.832;2023-02-28T12:38:02;0.82;;;0.50;;
47309;SDS011;33046;52.270;6.832;2023-02-28T12:40:15;2.25;;;0.60;;
47309;SDS011;33046;52.270;6.832;2023-02-28T12:42:26;1.88;;;1.02;;
47309;SDS011;33046;52.270;6.832;2023-02-28T12:44:37;2.55;;;0.95;;
47309;SDS011;33046;52.270;6.832;2023-02-28T12:46:49;2.17;;;0.73;;
47309;SDS011;33046;52.270;6.832;2023-02-28T12:49:00;1.23;;;0.63;;
47309;SDS011;33046;52.270;6.832;2023-02-28T12:51:14;0.88;;;0.63;;
47309;SDS011;33046;52.270;6.832;2023-02-28T12:53:23;2.40;;;0.73;;
47309;SDS011;33046;52.270;6.832;2023-02-28T12:55:35;1.08;;;0.85;;
47309;SDS011;33046;52.270;6.832;2023-02-28T12:57:53;0.70;;;0.50;;
47309;SDS011;33046;52.270;6.832;2023-02-28T13:00:10;1.05;;;0.60;;
47309;SDS011;33046;52.270;6.832;2023-02-28T13:05:00;3.75;;;0.70;;
47309;SDS011;33046;52.270;6.832;2023-02-28T13:09:54;1.40;;;0.70;;
47309;SDS011;33046;52.270;6.832;2023-02-28T13:14:19;1.30;;;1.00;;
47309;SDS011;33046;52.270;6.832;2023-02-28T13:19:08;1.13;;;0.70;;
47309;SDS011;33046;52.270;6.832;2023-02-28T13:21:22;1.75;;;1.00;;
47309;SDS011;33046;52.270;6.832;2023-02-28T13:26:07;1.40;;;0.63;;
47309;SDS011;33046;52.270;6.832;2023-02-28T13:28:14;2.97;;;0.88;;
47309;SDS011;33046;52.270;6.832;2023-02-28T13:31:04;1.20;;;0.80;;
47309;SDS011;33046;52.270;6.832;2023-02-28T13:33:22;1.60;;;1.25;;
47309;SDS011;33046;52.270;6.832;2023-02-28T13:35:35;1.90;;;0.70;;